Time,TemperatureF,DewpointF,PressureIn,WindDirection,WindDirectionDegrees,WindSpeedMPH,WindSpeedGustMPH,Humidity,HourlyPrecipIn,Conditions,Clouds,dailyrainin,SoftwareType,DateUTC
2013-12-06 00:00:00,-7.3,-12.3,30.47,North,360,1.0,1.0,78,0.00,,,0.01,Wunderground v.1.15,2013-12-06 07:00:00,
2013-12-06 00:05:00,-7.1,-12.2,30.44,North,360,0.0,1.0,78,0.00,,,0.00,Wunderground v.1.15,2013-12-06 07:05:00,
2013-12-06 00:15:00,-6.8,-11.9,30.44,North,360,0.0,0.0,78,0.00,,,0.00,Wunderground v.1.15,2013-12-06 07:15:00,
2013-12-06 00:20:00,-6.6,-11.4,30.45,North,360,0.0,0.0,79,0.00,,,0.00,Wunderground v.1.15,2013-12-06 07:20:00,
2013-12-06 00:25:00,-6.5,-11.3,30.45,North,360,0.0,0.0,79,0.00,,,0.00,Wunderground v.1.15,2013-12-06 07:25:00,
2013-12-06 00:30:00,-6.4,-11.2,30.45,North,360,0.0,0.0,79,0.00,,,0.00,Wunderground v.1.15,2013-12-06 07:30:00,
2013-12-06 00:40:00,-6.2,-11.3,30.44,North,360,0.0,0.0,78,0.00,,,0.00,Wunderground v.1.15,2013-12-06 07:40:00,
2013-12-06 00:45:00,-6.2,-11.3,30.44,North,360,0.0,0.0,78,0.00,,,0.00,Wunderground v.1.15,2013-12-06 07:45:00,
2013-12-06 00:50:00,-6.2,-11.3,30.44,North,360,0.0,0.0,78,0.00,,,0.00,Wunderground v.1.15,2013-12-06 07:50:00,
2013-12-06 00:55:00,-6.3,-11.4,30.44,North,360,0.0,0.0,78,0.00,,,0.00,Wunderground v.1.15,2013-12-06 07:55:00,
2013-12-06 01:10:00,-6.5,-11.6,30.42,North,360,1.0,1.0,78,0.00,,,0.00,Wunderground v.1.15,2013-12-06 08:10:00,
2013-12-06 01:15:00,-6.6,-11.7,30.42,North,360,1.0,1.0,78,0.00,,,0.00,Wunderground v.1.15,2013-12-06 08:15:00,
2013-12-06 01:20:00,-6.6,-11.7,30.42,North,360,1.0,2.0,78,0.00,,,0.00,Wunderground v.1.15,2013-12-06 08:20:00,
2013-12-06 01:30:00,-6.4,-11.5,30.42,North,360,1.0,1.0,78,0.00,,,0.00,Wunderground v.1.15,2013-12-06 08:30:00,
2013-12-06 01:35:00,-6.3,-11.4,30.42,North,360,1.0,1.0,78,0.00,,,0.00,Wunderground v.1.15,2013-12-06 08:35:00,
2013-12-06 01:40:00,-6.2,-11.3,30.43,North,360,0.0,0.0,78,0.00,,,0.00,Wunderground v.1.15,2013-12-06 08:40:00,
2013-12-06 01:45:00,-6.1,-11.2,30.43,North,360,0.0,0.0,78,0.00,,,0.00,Wunderground v.1.15,2013-12-06 08:45:00,
2013-12-06 01:55:00,-6.1,-11.2,30.43,North,360,0.0,0.0,78,0.00,,,0.00,Wunderground v.1.15,2013-12-06 08:55:00,
2013-12-06 02:00:00,-6.1,-11.2,30.43,North,360,0.0,0.0,78,0.00,,,0.00,Wunderground v.1.15,2013-12-06 09:00:00,
2013-12-06 02:05:00,-6.1,-11.2,30.44,North,360,0.0,0.0,78,0.00,,,0.00,Wunderground v.1.15,2013-12-06 09:05:00,
2013-12-06 02:15:00,-6.2,-11.3,30.44,North,360,1.0,1.0,78,0.00,,,0.00,Wunderground v.1.15,2013-12-06 09:15:00,
2013-12-06 02:25:00,-6.3,-11.4,30.44,North,360,0.0,1.0,78,0.00,,,0.00,Wunderground v.1.15,2013-12-06 09:25:00,
2013-12-06 02:30:00,-6.3,-11.4,30.44,North,360,1.0,1.0,78,0.00,,,0.00,Wunderground v.1.15,2013-12-06 09:30:00,
2013-12-06 02:35:00,-6.3,-11.4,30.45,North,360,1.0,1.0,78,0.00,,,0.00,Wunderground v.1.15,2013-12-06 09:35:00,
2013-12-06 02:40:00,-6.3,-11.4,30.45,North,360,0.0,0.0,78,0.00,,,0.00,Wunderground v.1.15,2013-12-06 09:40:00,
2013-12-06 02:45:00,-6.2,-11.3,30.45,North,360,0.0,0.0,78,0.00,,,0.00,Wunderground v.1.15,2013-12-06 09:45:00,
2013-12-06 02:50:00,-6.1,-11.2,30.45,North,360,0.0,0.0,78,0.00,,,0.00,Wunderground v.1.15,2013-12-06 09:50:00,
2013-12-06 03:00:00,-5.9,-11.0,30.45,North,360,0.0,0.0,78,0.00,,,0.00,Wunderground v.1.15,2013-12-06 10:00:00,
2013-12-06 03:05:00,-5.9,-11.0,30.46,North,360,0.0,0.0,78,0.00,,,0.00,Wunderground v.1.15,2013-12-06 10:05:00,
2013-12-06 03:15:00,-5.8,-10.9,30.46,North,360,0.0,0.0,78,0.00,,,0.00,Wunderground v.1.15,2013-12-06 10:15:00,
2013-12-06 03:20:00,-5.8,-10.9,30.47,North,360,0.0,0.0,78,0.00,,,0.00,Wunderground v.1.15,2013-12-06 10:20:00,
2013-12-06 03:25:00,-5.8,-10.9,30.47,North,360,0.0,0.0,78,0.00,,,0.00,Wunderground v.1.15,2013-12-06 10:25:00,
2013-12-06 03:30:00,-5.7,-10.8,30.47,North,360,0.0,0.0,78,0.00,,,0.00,Wunderground v.1.15,2013-12-06 10:30:00,
2013-12-06 03:40:00,-5.5,-10.3,30.47,North,360,0.0,0.0,79,0.00,,,0.00,Wunderground v.1.15,2013-12-06 10:40:00,
2013-12-06 03:45:00,-5.5,-10.3,30.47,North,360,0.0,0.0,79,0.00,,,0.00,Wunderground v.1.15,2013-12-06 10:45:00,
2013-12-06 03:50:00,-5.4,-10.5,30.45,North,360,0.0,0.0,78,0.00,,,0.00,Wunderground v.1.15,2013-12-06 10:50:00,
2013-12-06 03:55:00,-5.4,-10.5,30.45,North,360,0.0,0.0,78,0.00,,,0.00,Wunderground v.1.15,2013-12-06 10:55:00,
2013-12-06 04:00:00,-5.3,-10.4,30.45,North,360,0.0,0.0,78,0.00,,,0.00,Wunderground v.1.15,2013-12-06 11:00:00,
2013-12-06 04:05:00,-5.3,-10.4,30.48,North,360,0.0,0.0,78,0.00,,,0.00,Wunderground v.1.15,2013-12-06 11:05:00,
2013-12-06 04:15:00,-5.4,-10.5,30.48,North,360,0.0,0.0,78,0.00,,,0.00,Wunderground v.1.15,2013-12-06 11:15:00,
2013-12-06 04:20:00,-5.4,-10.2,30.48,North,360,0.0,0.0,79,0.00,,,0.00,Wunderground v.1.15,2013-12-06 11:20:00,
2013-12-06 04:25:00,-5.5,-10.3,30.48,North,360,0.0,0.0,79,0.00,,,0.00,Wunderground v.1.15,2013-12-06 11:25:00,
2013-12-06 04:30:00,-5.6,-10.7,30.48,North,360,0.0,0.0,78,0.00,,,0.00,Wunderground v.1.15,2013-12-06 11:30:00,
2013-12-06 04:35:00,-5.7,-10.8,30.48,North,360,0.0,0.0,78,0.00,,,0.00,Wunderground v.1.15,2013-12-06 11:35:00,
2013-12-06 04:40:00,-5.7,-10.8,30.48,North,360,0.0,0.0,78,0.00,,,0.00,Wunderground v.1.15,2013-12-06 11:40:00,
2013-12-06 04:50:00,-5.8,-10.6,30.49,North,360,0.0,0.0,79,0.00,,,0.00,Wunderground v.1.15,2013-12-06 11:50:00,
2013-12-06 04:55:00,-5.9,-11.0,30.49,North,360,0.0,0.0,78,0.00,,,0.00,Wunderground v.1.15,2013-12-06 11:55:00,
2013-12-06 05:00:00,-6.1,-11.2,30.49,North,360,0.0,0.0,78,0.00,,,0.00,Wunderground v.1.15,2013-12-06 12:00:00,
2013-12-06 05:05:00,-6.2,-11.3,30.52,North,360,0.0,0.0,78,0.00,,,0.00,Wunderground v.1.15,2013-12-06 12:05:00,
2013-12-06 05:15:00,-6.3,-11.4,30.53,North,360,0.0,0.0,78,0.00,,,0.00,Wunderground v.1.15,2013-12-06 12:15:00,
2013-12-06 05:20:00,-6.3,-11.1,30.53,North,360,0.0,0.0,79,0.00,,,0.00,Wunderground v.1.15,2013-12-06 12:20:00,
2013-12-06 05:25:00,-6.3,-11.1,30.53,North,360,0.0,0.0,79,0.00,,,0.00,Wunderground v.1.15,2013-12-06 12:25:00,
2013-12-06 05:30:00,-6.3,-11.1,30.53,North,360,0.0,0.0,79,0.00,,,0.00,Wunderground v.1.15,2013-12-06 12:30:00,
2013-12-06 05:35:00,-6.5,-11.6,30.53,North,360,0.0,0.0,78,0.00,,,0.00,Wunderground v.1.15,2013-12-06 12:35:00,
2013-12-06 05:40:00,-6.5,-11.6,30.53,North,360,0.0,0.0,78,0.00,,,0.00,Wunderground v.1.15,2013-12-06 12:40:00,
2013-12-06 05:45:00,-6.8,-11.9,30.54,North,360,0.0,0.0,78,0.00,,,0.00,Wunderground v.1.15,2013-12-06 12:45:00,
2013-12-06 05:55:00,-7.3,-12.3,30.54,North,360,0.0,0.0,78,0.00,,,0.00,Wunderground v.1.15,2013-12-06 12:55:00,
2013-12-06 06:00:00,-7.4,-12.4,30.54,North,360,0.0,0.0,78,0.00,,,0.00,Wunderground v.1.15,2013-12-06 13:00:00,
2013-12-06 06:05:00,-7.6,-12.6,30.58,North,360,0.0,1.0,78,0.00,,,0.00,Wunderground v.1.15,2013-12-06 13:05:00,
2013-12-06 06:15:00,-7.9,-12.9,30.58,North,360,1.0,1.0,78,0.00,,,0.00,Wunderground v.1.15,2013-12-06 13:15:00,
2013-12-06 06:25:00,-8.2,-13.2,30.58,North,360,0.0,1.0,78,0.00,,,0.00,Wunderground v.1.15,2013-12-06 13:25:00,
2013-12-06 06:30:00,-8.3,-13.3,30.58,North,360,0.0,0.0,78,0.00,,,0.00,Wunderground v.1.15,2013-12-06 13:30:00,
2013-12-06 06:35:00,-8.4,-13.4,30.58,North,360,0.0,2.0,78,0.00,,,0.00,Wunderground v.1.15,2013-12-06 13:35:00,
2013-12-06 06:40:00,-8.5,-13.5,30.60,North,360,1.0,1.0,78,0.00,,,0.00,Wunderground v.1.15,2013-12-06 13:40:00,
2013-12-06 06:45:00,-8.6,-13.6,30.60,North,360,1.0,1.0,78,0.00,,,0.00,Wunderground v.1.15,2013-12-06 13:45:00,
2013-12-06 06:50:00,-8.6,-13.6,30.60,North,360,0.0,0.0,78,0.00,,,0.00,Wunderground v.1.15,2013-12-06 13:50:00,
2013-12-06 07:00:00,-8.6,-13.6,30.60,North,360,0.0,0.0,78,0.00,,,0.00,Wunderground v.1.15,2013-12-06 14:00:00,
2013-12-06 07:05:00,-8.5,-13.5,30.62,North,360,0.0,0.0,78,0.00,,,0.00,Wunderground v.1.15,2013-12-06 14:05:00,
2013-12-06 07:15:00,-8.4,-13.4,30.61,North,360,1.0,1.0,78,0.00,,,0.00,Wunderground v.1.15,2013-12-06 14:15:00,
2013-12-06 07:20:00,-8.3,-13.3,30.61,North,360,0.0,0.0,78,0.00,,,0.00,Wunderground v.1.15,2013-12-06 14:20:00,
2013-12-06 07:30:00,-8.2,-13.2,30.61,North,360,0.0,0.0,78,0.00,,,0.00,Wunderground v.1.15,2013-12-06 14:30:00,
2013-12-06 07:35:00,-8.2,-13.5,30.61,North,360,0.0,0.0,77,0.00,,,0.00,Wunderground v.1.15,2013-12-06 14:35:00,
2013-12-06 07:40:00,-8.2,-13.5,30.61,North,360,0.0,0.0,77,0.00,,,0.00,Wunderground v.1.15,2013-12-06 14:40:00,
2013-12-06 07:45:00,-8.2,-13.2,30.62,North,360,0.0,0.0,78,0.00,,,0.00,Wunderground v.1.15,2013-12-06 14:45:00,
2013-12-06 07:50:00,-8.1,-13.1,30.62,North,360,0.0,0.0,78,0.00,,,0.00,Wunderground v.1.15,2013-12-06 14:50:00,
2013-12-06 07:55:00,-7.9,-12.9,30.62,North,360,0.0,0.0,78,0.00,,,0.00,Wunderground v.1.15,2013-12-06 14:55:00,
2013-12-06 08:00:00,-7.8,-12.8,30.62,North,360,0.0,0.0,78,0.00,,,0.00,Wunderground v.1.15,2013-12-06 15:00:00,
2013-12-06 08:05:00,-7.6,-12.6,30.63,North,360,0.0,0.0,78,0.00,,,0.00,Wunderground v.1.15,2013-12-06 15:05:00,
2013-12-06 08:15:00,-7.0,-12.1,30.64,North,360,0.0,0.0,78,0.00,,,0.00,Wunderground v.1.15,2013-12-06 15:15:00,
2013-12-06 08:20:00,-6.6,-11.7,30.64,North,360,0.0,0.0,78,0.00,,,0.00,Wunderground v.1.15,2013-12-06 15:20:00,
2013-12-06 08:25:00,-6.2,-11.3,30.63,North,360,0.0,0.0,78,0.00,,,0.00,Wunderground v.1.15,2013-12-06 15:25:00,
2013-12-06 08:30:00,-5.7,-10.8,30.63,North,355,0.0,0.0,78,0.00,,,0.00,Wunderground v.1.15,2013-12-06 15:30:00,
2013-12-06 08:35:00,-5.3,-10.4,30.63,North,355,0.0,0.0,78,0.00,,,0.00,Wunderground v.1.15,2013-12-06 15:35:00,
2013-12-06 08:45:00,-4.5,-9.4,30.64,North,355,0.0,0.0,79,0.00,,,0.00,Wunderground v.1.15,2013-12-06 15:45:00,
2013-12-06 08:50:00,-4.0,-8.9,30.63,North,355,0.0,0.0,79,0.00,,,0.00,Wunderground v.1.15,2013-12-06 15:50:00,
2013-12-06 08:55:00,-3.5,-8.4,30.63,North,355,0.0,0.0,79,0.00,,,0.00,Wunderground v.1.15,2013-12-06 15:55:00,
2013-12-06 09:00:00,-2.7,-7.6,30.63,North,355,0.0,0.0,79,0.00,,,0.00,Wunderground v.1.15,2013-12-06 16:00:00,
2013-12-06 09:05:00,-2.0,-6.9,30.63,North,355,0.0,0.0,79,0.00,,,0.00,Wunderground v.1.15,2013-12-06 16:05:00,
2013-12-06 09:15:00,-1.5,-6.4,30.64,North,355,0.0,0.0,79,0.00,,,0.00,Wunderground v.1.15,2013-12-06 16:15:00,
2013-12-06 09:20:00,-1.7,-6.6,30.64,North,355,0.0,0.0,79,0.00,,,0.00,Wunderground v.1.15,2013-12-06 16:20:00,
2013-12-06 09:25:00,-1.6,-6.5,30.64,North,355,0.0,0.0,79,0.00,,,0.00,Wunderground v.1.15,2013-12-06 16:25:00,
2013-12-06 09:30:00,-1.3,-6.2,30.63,North,355,0.0,0.0,79,0.00,,,0.00,Wunderground v.1.15,2013-12-06 16:30:00,
2013-12-06 09:35:00,-1.1,-6.0,30.64,North,355,0.0,0.0,79,0.00,,,0.00,Wunderground v.1.15,2013-12-06 16:35:00,
2013-12-06 09:40:00,-1.1,-6.0,30.64,North,355,0.0,2.0,79,0.00,,,0.00,Wunderground v.1.15,2013-12-06 16:40:00,
2013-12-06 09:45:00,-1.1,-6.0,30.64,North,355,1.0,2.0,79,0.00,,,0.00,Wunderground v.1.15,2013-12-06 16:45:00,
2013-12-06 09:50:00,-1.0,-5.9,30.65,North,355,1.0,1.0,79,0.00,,,0.00,Wunderground v.1.15,2013-12-06 16:50:00,
2013-12-06 10:00:00,0.0,-4.7,30.65,North,355,0.0,0.0,80,0.00,,,0.00,Wunderground v.1.15,2013-12-06 17:00:00,
2013-12-06 10:05:00,0.5,-4.2,30.65,North,355,0.0,0.0,80,0.00,,,0.00,Wunderground v.1.15,2013-12-06 17:05:00,
2013-12-06 10:15:00,1.5,-3.2,30.64,North,355,0.0,0.0,80,0.00,,,0.00,Wunderground v.1.15,2013-12-06 17:15:00,
2013-12-06 10:20:00,2.2,-2.6,30.63,North,355,0.0,0.0,80,0.00,,,0.00,Wunderground v.1.15,2013-12-06 17:20:00,
2013-12-06 10:25:00,2.8,-2.0,30.63,North,355,0.0,0.0,80,0.00,,,0.00,Wunderground v.1.15,2013-12-06 17:25:00,
2013-12-06 10:35:00,4.0,-0.8,30.62,North,355,0.0,0.0,80,0.00,,,0.00,Wunderground v.1.15,2013-12-06 17:35:00,
2013-12-06 10:45:00,4.4,-0.4,30.62,North,355,0.0,0.0,80,0.00,,,0.00,Wunderground v.1.15,2013-12-06 17:45:00,
2013-12-06 10:50:00,4.7,-0.1,30.61,North,355,0.0,0.0,80,0.00,,,0.00,Wunderground v.1.15,2013-12-06 17:50:00,
2013-12-06 10:55:00,5.0,0.2,30.61,North,355,0.0,0.0,80,0.00,,,0.00,Wunderground v.1.15,2013-12-06 17:55:00,
2013-12-06 11:00:00,5.2,0.4,30.61,NNW,334,0.0,0.0,80,0.00,,,0.00,Wunderground v.1.15,2013-12-06 18:00:00,
2013-12-06 11:15:00,5.3,0.2,30.61,WNW,296,0.0,0.0,79,0.00,,,0.00,Wunderground v.1.15,2013-12-06 18:15:00,
2013-12-06 11:20:00,5.4,0.6,30.61,WNW,296,0.0,0.0,80,0.00,,,0.00,Wunderground v.1.15,2013-12-06 18:20:00,
2013-12-06 11:30:00,6.2,1.4,30.60,WNW,296,0.0,0.0,80,0.00,,,0.00,Wunderground v.1.15,2013-12-06 18:30:00,
2013-12-06 11:35:00,7.3,2.7,30.59,WNW,297,0.0,0.0,81,0.00,,,0.00,Wunderground v.1.15,2013-12-06 18:35:00,
2013-12-06 11:40:00,8.3,3.4,30.59,WNW,296,0.0,0.0,80,0.00,,,0.00,Wunderground v.1.15,2013-12-06 18:40:00,
2013-12-06 11:45:00,9.4,4.7,30.58,WNW,296,0.0,0.0,81,0.00,,,0.00,Wunderground v.1.15,2013-12-06 18:45:00,
2013-12-06 11:55:00,9.9,5.0,30.57,WNW,294,0.0,0.0,80,0.00,,,0.00,Wunderground v.1.15,2013-12-06 18:55:00,
2013-12-06 12:00:00,9.7,4.5,30.57,WNW,288,0.0,0.0,79,0.00,,,0.00,Wunderground v.1.15,2013-12-06 19:00:00,
2013-12-06 12:05:00,9.7,4.5,30.57,WNW,290,0.0,0.0,79,0.00,,,0.00,Wunderground v.1.15,2013-12-06 19:05:00,
2013-12-06 12:15:00,11.7,6.7,30.55,WNW,290,0.0,0.0,80,0.00,,,0.00,Wunderground v.1.15,2013-12-06 19:15:00,
2013-12-06 12:20:00,12.2,7.2,30.55,WNW,291,0.0,0.0,80,0.00,,,0.00,Wunderground v.1.15,2013-12-06 19:20:00,
2013-12-06 12:25:00,11.4,5.9,30.56,WNW,286,0.0,0.0,78,0.00,,,0.00,Wunderground v.1.15,2013-12-06 19:25:00,
2013-12-06 12:30:00,10.7,5.2,30.56,WNW,286,0.0,0.0,78,0.00,,,0.00,Wunderground v.1.15,2013-12-06 19:30:00,
2013-12-06 12:40:00,10.3,5.1,30.56,WNW,287,0.0,0.0,79,0.00,,,0.00,Wunderground v.1.15,2013-12-06 19:40:00,
2013-12-06 12:45:00,10.3,5.1,30.55,WNW,286,0.0,0.0,79,0.00,,,0.00,Wunderground v.1.15,2013-12-06 19:45:00,
2013-12-06 12:50:00,10.3,5.1,30.55,WNW,286,0.0,0.0,79,0.00,,,0.00,Wunderground v.1.15,2013-12-06 19:50:00,
2013-12-06 12:55:00,11.0,6.0,30.55,WNW,287,0.0,0.0,80,0.00,,,0.00,Wunderground v.1.15,2013-12-06 19:55:00,
2013-12-06 13:05:00,13.2,8.2,30.53,WNW,287,0.0,0.0,80,0.00,,,0.00,Wunderground v.1.15,2013-12-06 20:05:00,
2013-12-06 13:15:00,15.0,9.9,30.52,WNW,287,0.0,0.0,80,0.00,,,0.00,Wunderground v.1.15,2013-12-06 20:15:00,
2013-12-06 13:20:00,15.8,10.7,30.50,WNW,287,0.0,0.0,80,0.00,,,0.00,Wunderground v.1.15,2013-12-06 20:20:00,
2013-12-06 13:25:00,16.0,10.6,30.50,WNW,287,0.0,0.0,79,0.00,,,0.00,Wunderground v.1.15,2013-12-06 20:25:00,
2013-12-06 13:35:00,16.3,10.9,30.49,WNW,287,0.0,0.0,79,0.00,,,0.00,Wunderground v.1.15,2013-12-06 20:35:00,
2013-12-06 13:40:00,17.0,11.6,30.49,WNW,288,0.0,0.0,79,0.00,,,0.00,Wunderground v.1.15,2013-12-06 20:40:00,
2013-12-06 13:45:00,17.4,12.0,30.49,WNW,287,0.0,0.0,79,0.00,,,0.00,Wunderground v.1.15,2013-12-06 20:45:00,
2013-12-06 13:50:00,17.9,12.5,30.48,WNW,288,0.0,0.0,79,0.00,,,0.00,Wunderground v.1.15,2013-12-06 20:50:00,
2013-12-06 13:55:00,18.2,12.8,30.47,WNW,288,0.0,0.0,79,0.00,,,0.00,Wunderground v.1.15,2013-12-06 20:55:00,
2013-12-06 14:00:00,17.7,12.0,30.48,WNW,291,1.0,1.0,78,0.00,,,0.00,Wunderground v.1.15,2013-12-06 21:00:00,
2013-12-06 14:10:00,15.7,9.8,30.48,WNW,292,0.0,0.0,77,0.00,,,0.00,Wunderground v.1.15,2013-12-06 21:10:00,
2013-12-06 14:15:00,15.6,10.0,30.48,WNW,292,0.0,0.0,78,0.00,,,0.00,Wunderground v.1.15,2013-12-06 21:15:00,
2013-12-06 14:20:00,16.2,10.8,30.48,WNW,291,0.0,0.0,79,0.00,,,0.00,Wunderground v.1.15,2013-12-06 21:20:00,
2013-12-06 14:25:00,17.3,12.2,30.48,WNW,292,0.0,0.0,80,0.00,,,0.00,Wunderground v.1.15,2013-12-06 21:25:00,
2013-12-06 14:30:00,18.4,13.0,30.47,WNW,291,0.0,0.0,79,0.00,,,0.00,Wunderground v.1.15,2013-12-06 21:30:00,
2013-12-06 14:35:00,18.9,13.5,30.47,WNW,292,0.0,0.0,79,0.00,,,0.00,Wunderground v.1.15,2013-12-06 21:35:00,
2013-12-06 14:45:00,18.9,13.2,30.46,WNW,294,0.0,0.0,78,0.00,,,0.00,Wunderground v.1.15,2013-12-06 21:45:00,
2013-12-06 14:50:00,19.1,13.4,30.46,WNW,294,0.0,0.0,78,0.00,,,0.00,Wunderground v.1.15,2013-12-06 21:50:00,
2013-12-06 14:55:00,19.1,13.4,30.46,WNW,294,0.0,0.0,78,0.00,,,0.00,Wunderground v.1.15,2013-12-06 21:55:00,
2013-12-06 15:00:00,18.8,13.1,30.46,WNW,294,0.0,1.0,78,0.00,,,0.00,Wunderground v.1.15,2013-12-06 22:00:00,
2013-12-06 15:05:00,18.7,13.0,30.45,NW,306,1.0,1.0,78,0.00,,,0.00,Wunderground v.1.15,2013-12-06 22:05:00,
2013-12-06 15:15:00,17.9,11.9,30.48,West,281,1.0,1.0,77,0.00,,,0.00,Wunderground v.1.15,2013-12-06 22:15:00,
2013-12-06 15:25:00,16.2,10.5,30.49,WNW,284,0.0,1.0,78,0.00,,,0.00,Wunderground v.1.15,2013-12-06 22:25:00,
2013-12-06 15:30:00,15.3,9.7,30.50,WNW,284,0.0,0.0,78,0.00,,,0.00,Wunderground v.1.15,2013-12-06 22:30:00,
2013-12-06 15:35:00,14.3,8.7,30.50,WNW,283,0.0,0.0,78,0.00,,,0.00,Wunderground v.1.15,2013-12-06 22:35:00,
2013-12-06 15:40:00,13.8,8.5,30.51,WNW,284,0.0,0.0,79,0.00,,,0.00,Wunderground v.1.15,2013-12-06 22:40:00,
2013-12-06 15:45:00,13.2,7.9,30.51,WNW,284,1.0,1.0,79,0.00,,,0.00,Wunderground v.1.15,2013-12-06 22:45:00,
2013-12-06 15:50:00,12.9,7.9,30.50,WNW,283,1.0,1.0,80,0.00,,,0.00,Wunderground v.1.15,2013-12-06 22:50:00,
2013-12-06 16:00:00,13.0,8.3,30.50,WNW,284,0.0,0.0,81,0.00,,,0.00,Wunderground v.1.15,2013-12-06 23:00:00,
2013-12-06 16:05:00,13.2,8.5,30.51,WNW,284,0.0,0.0,81,0.00,,,0.00,Wunderground v.1.15,2013-12-06 23:05:00,
2013-12-06 16:15:00,13.5,8.8,30.50,WNW,283,0.0,0.0,81,0.00,,,0.00,Wunderground v.1.15,2013-12-06 23:15:00,
2013-12-06 16:20:00,13.6,8.9,30.50,WNW,284,0.0,0.0,81,0.00,,,0.00,Wunderground v.1.15,2013-12-06 23:20:00,
2013-12-06 16:25:00,13.8,9.0,30.51,WNW,283,0.0,0.0,81,0.00,,,0.00,Wunderground v.1.15,2013-12-06 23:25:00,
2013-12-06 16:35:00,13.9,9.1,30.51,WNW,284,0.0,0.0,81,0.00,,,0.00,Wunderground v.1.15,2013-12-06 23:35:00,
2013-12-06 16:40:00,13.5,8.5,30.51,WNW,284,0.0,0.0,80,0.00,,,0.00,Wunderground v.1.15,2013-12-06 23:40:00,
2013-12-06 16:45:00,13.0,8.0,30.52,WNW,283,0.0,0.0,80,0.00,,,0.00,Wunderground v.1.15,2013-12-06 23:45:00,
2013-12-06 16:50:00,12.6,7.6,30.52,WNW,284,0.0,0.0,80,0.00,,,0.00,Wunderground v.1.15,2013-12-06 23:50:00,
2013-12-06 16:55:00,12.2,7.2,30.52,WNW,283,0.0,0.0,80,0.00,,,0.00,Wunderground v.1.15,2013-12-06 23:55:00,
2013-12-06 17:00:00,12.0,7.0,30.52,WNW,283,0.0,0.0,80,0.00,,,0.00,Wunderground v.1.15,2013-12-07 00:00:00,
2013-12-06 17:10:00,11.6,6.6,30.53,WNW,284,0.0,0.0,80,0.00,,,0.00,Wunderground v.1.15,2013-12-07 00:10:00,
2013-12-06 17:15:00,11.3,6.3,30.55,NW,315,1.0,1.0,80,0.00,,,0.00,Wunderground v.1.15,2013-12-07 00:15:00,
2013-12-06 17:20:00,10.9,5.9,30.55,NW,314,1.0,1.0,80,0.00,,,0.00,Wunderground v.1.15,2013-12-07 00:20:00,
2013-12-06 17:25:00,10.7,5.7,30.55,NW,314,0.0,1.0,80,0.00,,,0.00,Wunderground v.1.15,2013-12-07 00:25:00,
2013-12-06 17:30:00,10.5,5.8,30.55,NW,314,0.0,0.0,81,0.00,,,0.00,Wunderground v.1.15,2013-12-07 00:30:00,
2013-12-06 17:40:00,10.1,5.4,30.56,NNW,329,1.0,1.0,81,0.00,,,0.00,Wunderground v.1.15,2013-12-07 00:40:00,
2013-12-06 17:45:00,9.9,5.2,30.56,NNW,329,2.0,2.0,81,0.00,,,0.00,Wunderground v.1.15,2013-12-07 00:45:00,
2013-12-06 17:50:00,9.6,4.7,30.56,NNW,329,1.0,1.0,80,0.00,,,0.00,Wunderground v.1.15,2013-12-07 00:50:00,
2013-12-06 17:55:00,8.7,3.8,30.57,NNW,329,0.0,2.0,80,0.00,,,0.00,Wunderground v.1.15,2013-12-07 00:55:00,
2013-12-06 18:00:00,7.8,2.6,30.57,NNW,329,0.0,0.0,79,0.00,,,0.00,Wunderground v.1.15,2013-12-07 01:00:00,
2013-12-06 18:05:00,6.9,1.8,30.58,NNW,329,0.0,3.0,79,0.00,,,0.00,Wunderground v.1.15,2013-12-07 01:05:00,
2013-12-06 18:15:00,5.2,0.1,30.59,NNW,347,2.0,2.0,79,0.00,,,0.00,Wunderground v.1.15,2013-12-07 01:15:00,
2013-12-06 18:20:00,4.6,-0.5,30.59,NNW,347,1.0,1.0,79,0.00,,,0.00,Wunderground v.1.15,2013-12-07 01:20:00,
2013-12-06 18:25:00,4.2,-0.9,30.60,NNW,346,2.0,3.0,79,0.00,,,0.00,Wunderground v.1.15,2013-12-07 01:25:00,
2013-12-06 18:30:00,4.0,-1.1,30.60,NNW,347,2.0,2.0,79,0.00,,,0.00,Wunderground v.1.15,2013-12-07 01:30:00,
2013-12-06 18:35:00,4.0,-0.8,30.60,NNW,346,1.0,2.0,80,0.00,,,0.00,Wunderground v.1.15,2013-12-07 01:35:00,
2013-12-06 18:40:00,4.0,-0.8,30.60,NNW,347,0.0,0.0,80,0.00,,,0.00,Wunderground v.1.15,2013-12-07 01:40:00,
2013-12-06 18:45:00,4.1,-0.7,30.60,NNW,347,0.0,0.0,80,0.00,,,0.00,Wunderground v.1.15,2013-12-07 01:45:00,
2013-12-06 18:55:00,3.8,-1.0,30.60,NNW,346,0.0,0.0,80,0.00,,,0.00,Wunderground v.1.15,2013-12-07 01:55:00,
2013-12-06 19:05:00,3.2,-1.6,30.60,NNW,347,0.0,2.0,80,0.00,,,0.00,Wunderground v.1.15,2013-12-07 02:05:00,
2013-12-06 19:15:00,2.2,-2.8,30.61,NNW,347,1.0,1.0,79,0.00,,,0.00,Wunderground v.1.15,2013-12-07 02:15:00,
2013-12-06 19:20:00,1.8,-3.2,30.61,NNW,346,0.0,0.0,79,0.00,,,0.00,Wunderground v.1.15,2013-12-07 02:20:00,
2013-12-06 19:30:00,1.8,-2.9,30.61,NNW,346,1.0,2.0,80,0.00,,,0.00,Wunderground v.1.15,2013-12-07 02:30:00,
2013-12-06 19:35:00,1.7,-3.0,30.61,NNW,346,2.0,2.0,80,0.00,,,0.00,Wunderground v.1.15,2013-12-07 02:35:00,
2013-12-06 19:40:00,1.4,-3.3,30.61,NNW,347,3.0,3.0,80,0.00,,,0.00,Wunderground v.1.15,2013-12-07 02:40:00,
2013-12-06 19:45:00,1.2,-3.5,30.61,NNW,346,2.0,3.0,80,0.00,,,0.00,Wunderground v.1.15,2013-12-07 02:45:00,
2013-12-06 19:50:00,1.0,-3.7,30.61,NNW,347,1.0,1.0,80,0.00,,,0.00,Wunderground v.1.15,2013-12-07 02:50:00,
2013-12-06 20:00:00,0.6,-4.1,30.61,NNW,347,0.0,0.0,80,0.00,,,0.00,Wunderground v.1.15,2013-12-07 03:00:00,
2013-12-06 20:05:00,0.5,-4.2,30.58,NNW,347,0.0,0.0,80,0.00,,,0.00,Wunderground v.1.15,2013-12-07 03:05:00,
2013-12-06 20:15:00,0.4,-4.3,30.59,NNW,347,0.0,0.0,80,0.00,,,0.00,Wunderground v.1.15,2013-12-07 03:15:00,
2013-12-06 20:20:00,0.5,-4.2,30.58,NNW,346,0.0,0.0,80,0.00,,,0.00,Wunderground v.1.15,2013-12-07 03:20:00,
2013-12-06 20:25:00,0.6,-4.1,30.58,NNW,346,0.0,0.0,80,0.00,,,0.00,Wunderground v.1.15,2013-12-07 03:25:00,
2013-12-06 20:35:00,0.4,-4.3,30.59,NNW,346,1.0,2.0,80,0.00,,,0.00,Wunderground v.1.15,2013-12-07 03:35:00,
2013-12-06 20:40:00,0.3,-4.4,30.60,NNW,346,1.0,1.0,80,0.00,,,0.00,Wunderground v.1.15,2013-12-07 03:40:00,
2013-12-06 20:45:00,0.2,-4.5,30.60,NNW,346,1.0,1.0,80,0.00,,,0.00,Wunderground v.1.15,2013-12-07 03:45:00,
2013-12-06 20:50:00,0.2,-4.5,30.59,NNW,346,0.0,0.0,80,0.00,,,0.00,Wunderground v.1.15,2013-12-07 03:50:00,
2013-12-06 20:55:00,0.2,-4.5,30.60,NNW,346,0.0,0.0,80,0.00,,,0.00,Wunderground v.1.15,2013-12-07 03:55:00,
2013-12-06 21:05:00,0.2,-4.5,30.59,NNW,346,0.0,0.0,80,0.00,,,0.00,Wunderground v.1.15,2013-12-07 04:05:00,
2013-12-06 21:15:00,0.3,-4.4,30.59,NNW,346,0.0,0.0,80,0.00,,,0.00,Wunderground v.1.15,2013-12-07 04:15:00,
2013-12-06 21:20:00,0.4,-4.3,30.59,NNW,346,0.0,0.0,80,0.00,,,0.00,Wunderground v.1.15,2013-12-07 04:20:00,
2013-12-06 21:25:00,0.5,-4.0,30.59,NNW,346,0.0,0.0,81,0.00,,,0.00,Wunderground v.1.15,2013-12-07 04:25:00,
2013-12-06 21:30:00,0.6,-3.9,30.59,NNW,346,0.0,0.0,81,0.00,,,0.00,Wunderground v.1.15,2013-12-07 04:30:00,
2013-12-06 21:40:00,0.8,-3.7,30.59,NNW,346,0.0,0.0,81,0.00,,,0.00,Wunderground v.1.15,2013-12-07 04:40:00,
2013-12-06 21:45:00,1.0,-3.5,30.59,NNW,346,0.0,0.0,81,0.00,,,0.00,Wunderground v.1.15,2013-12-07 04:45:00,
2013-12-06 21:50:00,1.3,-3.2,30.59,NNW,346,0.0,0.0,81,0.00,,,0.00,Wunderground v.1.15,2013-12-07 04:50:00,
2013-12-06 21:55:00,1.7,-2.8,30.57,NNW,346,0.0,0.0,81,0.00,,,0.00,Wunderground v.1.15,2013-12-07 04:55:00,
2013-12-06 22:00:00,1.9,-2.6,30.57,NNW,346,0.0,0.0,81,0.00,,,0.00,Wunderground v.1.15,2013-12-07 05:00:00,
2013-12-06 22:05:00,2.1,-2.4,30.54,NNW,346,0.0,0.0,81,0.00,,,0.00,Wunderground v.1.15,2013-12-07 05:05:00,
2013-12-06 22:10:00,2.2,-2.3,30.54,NNW,346,0.0,0.0,81,0.00,,,0.00,Wunderground v.1.15,2013-12-07 05:10:00,
2013-12-06 22:15:00,2.4,-2.1,30.54,NNW,346,0.0,0.0,81,0.00,,,0.00,Wunderground v.1.15,2013-12-07 05:15:00,
2013-12-06 22:20:00,2.6,-1.9,30.54,NNW,346,0.0,0.0,81,0.00,,,0.00,Wunderground v.1.15,2013-12-07 05:20:00,
2013-12-06 22:25:00,2.8,-1.4,30.53,NNW,346,0.0,0.0,82,0.00,,,0.00,Wunderground v.1.15,2013-12-07 05:25:00,
2013-12-06 22:30:00,3.0,-1.3,30.53,NNW,346,0.0,0.0,82,0.00,,,0.00,Wunderground v.1.15,2013-12-07 05:30:00,
2013-12-06 22:35:00,3.2,-1.3,30.53,NNW,346,0.0,0.0,81,0.00,,,0.00,Wunderground v.1.15,2013-12-07 05:35:00,
2013-12-06 22:45:00,3.4,-1.1,30.54,NNW,346,0.0,0.0,81,0.00,,,0.00,Wunderground v.1.15,2013-12-07 05:45:00,
2013-12-06 22:50:00,3.3,-1.2,30.53,NNW,346,0.0,0.0,81,0.00,,,0.00,Wunderground v.1.15,2013-12-07 05:50:00,
2013-12-06 22:55:00,3.3,-1.2,30.53,NNW,346,0.0,0.0,81,0.00,,,0.00,Wunderground v.1.15,2013-12-07 05:55:00,
2013-12-06 23:00:00,3.4,-1.1,30.53,NNW,346,0.0,0.0,81,0.00,,,0.00,Wunderground v.1.15,2013-12-07 06:00:00,
2013-12-06 23:05:00,3.5,-1.0,30.50,NNW,346,0.0,1.0,81,0.00,,,0.00,Wunderground v.1.15,2013-12-07 06:05:00,
2013-12-06 23:15:00,3.5,-1.0,30.49,NNW,346,0.0,0.0,81,0.00,,,0.00,Wunderground v.1.15,2013-12-07 06:15:00,
2013-12-06 23:25:00,3.5,-1.0,30.49,NNW,346,1.0,1.0,81,0.00,,,0.00,Wunderground v.1.15,2013-12-07 06:25:00,
2013-12-06 23:30:00,3.6,-0.9,30.49,NNW,346,1.0,1.0,81,0.00,,,0.00,Wunderground v.1.15,2013-12-07 06:30:00,
2013-12-06 23:40:00,3.6,-0.9,30.49,NNW,346,0.0,0.0,81,0.00,,,0.00,Wunderground v.1.15,2013-12-07 06:40:00,
2013-12-06 23:45:00,3.7,-0.8,30.49,NNW,346,0.0,0.0,81,0.00,,,0.00,Wunderground v.1.15,2013-12-07 06:45:00,
2013-12-06 23:50:00,3.8,-0.7,30.49,NNW,346,0.0,0.0,81,0.00,,,0.00,Wunderground v.1.15,2013-12-07 06:50:00,